Rafael Alvarez

Scout - Nacional
4 Apr 2027
Sonntag
Verarbeitung

Persönlichkeit

Anpassungsfähigkeit (6) Ehrgeiz (8) Kontroverse (5) Loyalität (20) Druck (9) Professionalität (6) Fairness (5) Temperament (14)

Profil

Trainerstil Demokratisch
Lizenz Nationale B
Entschlossenheit 13
Menschenführung 7
Motivation 14
Disziplin 12
Arbeitszufriedenheit
71%
Ermüdung
0%
Rolle Scout
Gehalt 103.8K p/W
Vertrag 14.03.2030

Leistung

Verhalten Gut
Trainingseffektivität
30%
Spielerentwicklung
55%
Verletzungsprävention
25%
Taktische Umsetzung
70%

Letzte Ereignisse

Nahm an einer Scouting-Besprechung teil jetzt
Empfahl ein Transferziel jetzt
Empfahl ein Transferziel jetzt
Spieler begutachtet jetzt
Spieler begutachtet jetzt
Spieler begutachtet jetzt
Spieler begutachtet 7T her
Spieler begutachtet 7T her

Aktuell beobachtet

145
Spieler Verein Status Fähigkeit Vertrauen Beobachtet Zuletzt beobachtet Letzte Stimme
Jake O'Brien Everton Aktiv 161 / 162 40% 3 01.04.2027 -
Exequiel Palacios Ipswich Town Aktiv 153 / 165 40% 1 01.04.2027 -
Anton Stach Leeds United Aktiv 155 / 154 40% 1 01.04.2027 -
Reiss Nelson AC Milan Aktiv 141 / 131 40% 2 31.03.2027 -
Savinho Tottenham Aktiv 145 / 169 40% 4 31.03.2027 -
Nicolas Jackson Aston Villa Aktiv 156 / 154 40% 1 31.03.2027 -
Đorđe Petrović Bournemouth Aktiv 157 / 157 40% 1 31.03.2027 -
Lorenzo Palmisani Frosinone Aktiv 139 / 150 40% 1 31.03.2027 -
Lorenzo Montipò Venezia Aktiv 140 / 156 40% 1 31.03.2027 -
Tyler Adams Bournemouth Aktiv 153 / 152 40% 2 30.03.2027 -
Welington Southampton Aktiv 132 / 132 40% 1 30.03.2027 -
Leif Davis Ipswich Town Aktiv 135 / 147 40% 1 30.03.2027 -
Nico González Newcastle United Aktiv 155 / 161 40% 1 30.03.2027 -
Juanlu Bournemouth Aktiv 137 / 132 40% 1 30.03.2027 -
Carlos Vicente Birmingham Aktiv 131 / 125 40% 3 28.03.2027 -
Ander Barrenetxea Real Sociedad Aktiv 151 / 145 40% 3 28.03.2027 -
Jack Diamond Stockport County Aktiv 128 / 122 40% 1 28.03.2027 -
Dara O'Shea Ipswich Town Aktiv 124 / 152 40% 3 27.03.2027 -
Florentino Luís Ipswich Town Aktiv 144 / 149 40% 2 27.03.2027 -
Alfie Doughty Millwall Aktiv 141 / 144 40% 1 27.03.2027 -
Yehor Yarmoliuk Brentford Aktiv 149 / 144 40% 2 25.03.2027 -
Noah Sadiki Sunderland Aktiv 145 / 138 40% 1 25.03.2027 -
Harry Clarke Preston Aktiv 117 / 123 40% 1 25.03.2027 -
Percy Erasmus SuperSport United Aktiv 128 / 137 40% 3 24.03.2027 -
Tom Fellows Southampton Aktiv 134 / 147 40% 2 24.03.2027 -
Loum Tchaouna Coventry City Aktiv 150 / 146 40% 2 24.03.2027 -
Anthony Patterson Wrexham Aktiv 122 / 136 40% 1 24.03.2027 -
Bart Verbruggen Brighton Aktiv 145 / 142 40% 1 24.03.2027 -
Jean Butez Como Aktiv 157 / 142 40% 1 24.03.2027 -
Matthew Targett Hull City Aktiv 142 / 138 40% 1 24.03.2027 -
Hidemasa Morita Hull City Aktiv 138 / 143 40% 1 24.03.2027 -
Issa Kaboré Wrexham Aktiv 129 / 134 40% 2 22.03.2027 -
Ousmane Diomande Nottingham Forest Aktiv 147 / 141 40% 2 22.03.2027 -
Kostantis Tzolakis Hull City Aktiv 135 / 151 40% 1 17.03.2027 -
James Trafford Leeds United Aktiv 143 / 149 40% 1 17.03.2027 -
Radek Vítek Middlesbrough Aktiv 126 / 157 40% 1 17.03.2027 -
Éderson Atalanta Aktiv 170 / 148 40% 2 16.03.2027 -
Dean Henderson Crystal Palace Aktiv 151 / 140 40% 1 16.03.2027 -
Alex Meret Napoli Aktiv 148 / 159 40% 1 16.03.2027 -
Wladimiro Falcone Lecce Aktiv 129 / 128 40% 1 16.03.2027 -
Saba Sazonov Juve Stabia Aktiv 113 / 117 40% 1 16.03.2027 -
Nikola Vasilj Spartak Moscow Aktiv 148 / 129 40% 1 13.03.2027 -
Carl Rushworth Coventry City Aktiv 126 / 154 40% 1 13.03.2027 -
Mile Svilar AS Roma Aktiv 153 / 159 40% 1 13.03.2027 -
Mohamed-Ali Cho Hull City Aktiv 124 / 136 40% 1 12.03.2027 -
Marquinhos Spartak Moscow Aktiv 131 / 124 40% 1 12.03.2027 -
Relebohile Mofokeng Orlando Pirates Aktiv 135 / 112 40% 2 10.03.2027 -
Luiz Henrique Zenit Aktiv 154 / 151 40% 1 10.03.2027 -
Óscar Mingueza Crystal Palace Aktiv 157 / 148 40% 2 06.03.2027 -
Adrien Truffert Bournemouth Aktiv 151 / 142 40% 1 06.03.2027 -
Leandro Andrade Polissia Aktiv 123 / 132 40% 3 05.03.2027 -
Facundo Torres Shakhtar Aktiv 133 / 144 40% 4 05.03.2027 -
Finn Azaz Southampton Aktiv 126 / 142 40% 1 05.03.2027 -
Oston O'runov Persepolis Aktiv 131 / 123 40% 1 26.02.2027 -
James Garner Everton Aktiv 154 / 166 40% 1 25.02.2027 -
Sven Botman Newcastle United Aktiv 170 / 177 40% 1 25.02.2027 -
Moussa Diaby Al-Ittihad Aktiv 157 / 159 40% 1 23.02.2027 -
André Wolverhampton Aktiv 155 / 162 40% 1 19.02.2027 -
Natan Betis Aktiv 134 / 147 40% 1 19.02.2027 -
Gabriel Gudmundsson Leeds United Aktiv 130 / 152 40% 1 18.02.2027 -
Neco Williams Nottingham Forest Aktiv 150 / 148 40% 1 18.02.2027 -
Darlin Yongwa Norwich City Aktiv 124 / 107 40% 1 18.02.2027 -
Kevin Fulham Aktiv 138 / 153 40% 1 17.02.2027 -
Nico Paz Como Aktiv 160 / 154 40% 1 13.02.2027 -
Japhet Tanganga Sheffield United Aktiv 139 / 120 40% 1 12.02.2027 -
Amadou Onana Aston Villa Aktiv 163 / 170 40% 1 10.02.2027 -
Lindon Emërllahu Polissia Aktiv 120 / 141 40% 1 06.02.2027 -
Pedro Henrique Shakhtar Aktiv 134 / 117 40% 1 06.02.2027 -
Juan Manuel Boselli Krasnodar Aktiv 110 / 106 40% 1 06.02.2027 -
Ibrahim Tarek Masr El Makasa Aktiv 123 / 111 40% 3 05.02.2027 -
Ibrahim Bayesh Al Dhafra Aktiv 132 / 102 40% 1 05.02.2027 -
Dmytro Kryskiv Shakhtar Aktiv 121 / 111 40% 1 04.02.2027 -
Victor Parada Spartak Moscow Aktiv 135 / 126 40% 1 04.02.2027 -
Teden Mengi Luton Town Aktiv 112 / 112 40% 1 04.02.2027 -
Armstrong Oko-Flex Levski Aktiv 124 / 121 40% 2 29.01.2027 -
Matías Pellegrini Vélez Aktiv 125 / 115 40% 1 29.01.2027 -
Nahuel Ulariaga Al Ahli Aktiv 131 / 108 40% 2 27.01.2027 -
Ramiro Hernandes Belgrano Aktiv 118 / 116 40% 1 27.01.2027 -
Joaquín Gho Argentinos Juniors Aktiv 129 / 124 40% 3 18.01.2027 -
Tomás O'Connor Gimnasia y Esgrima Aktiv 124 / 123 40% 1 14.01.2027 -
Ali Soliman Masr El Makasa Aktiv 139 / 121 40% 1 14.01.2027 -
Juan Bezerra Zamalek Aktiv 133 / 140 40% 1 04.01.2027 -
Sayfallah Ltaief Cracovia Aktiv 135 / 108 40% 3 31.12.2026 -
Martín Ortega Newell's Old Boys Aktiv 122 / 133 40% 1 28.12.2026 -
Alexis Cuello San Lorenzo Aktiv 123 / 128 40% 2 26.12.2026 -
Marouan Azarkan Al Nasr Aktiv 133 / 102 40% 1 25.12.2026 -
Peter Federico Gornik Zabrze Aktiv 131 / 105 40% 1 25.12.2026 -
Camilo Durán Bloemfontein Celtic Aktiv 133 / 117 40% 2 16.12.2026 -
Franco Watson Lanús Aktiv 132 / 115 40% 1 16.12.2026 -
Augusto Schott Talleres Aktiv 121 / 113 40% 1 16.12.2026 -
Williams Alarcón Boca Juniors Aktiv 126 / 120 40% 1 15.12.2026 -
Alex Luna Instituto Aktiv 136 / 130 40% 1 15.12.2026 -
Roberto Hernández Cerrito Aktiv 106 / 108 65% 1 03.12.2026 Befürworten
Christian Tabó Deportivo Maldonado Aktiv 118 / 113 65% 1 02.12.2026 Befürworten
Evidence Makgopa Orlando Pirates Aktiv 107 / 130 40% 1 22.11.2026 -
Assad Al Hamlawi Universitatea Craiova Aktiv 134 / 131 40% 1 22.11.2026 -
Ezequiel Almirón Estudiantes Aktiv 106 / 121 40% 1 22.11.2026 -
Esteban Glellel Shonan Bellmare Aktiv 127 / 123 40% 3 19.11.2026 -
Luca Martínez Dupuy Godoy Cruz Aktiv 111 / 107 40% 2 19.11.2026 -
Enzo González Defensores Aktiv 100 / 115 40% 3 19.11.2026 -
Facundo Vila Estudiantes Aktiv 100 / 93 40% 1 19.11.2026 -
George Wickens Lincoln City Aktiv 122 / 110 40% 1 19.11.2026 -
Renzo Reynaga Patronato Aktiv 117 / 110 40% 2 17.11.2026 -
Facundo Krüger Temperley Aktiv 121 / 121 40% 1 17.11.2026 -
Dilan Godoy Vélez Aktiv 102 / 119 40% 2 12.11.2026 -
Felipe Fernández Vorskla Aktiv 101 / 100 40% 1 12.11.2026 -
Tamerlan Musaev CSKA Moscow Aktiv 132 / 99 40% 1 12.11.2026 -
Brayan León Mamelodi Sundowns Aktiv 125 / 114 40% 2 11.11.2026 -
Alexander Díaz Deportivo Riestra Aktiv 126 / 126 40% 1 11.11.2026 -
Mateo Fernández Angusht Aktiv 71 / 63 40% 1 10.11.2026 -
Enzo Avaro Mitre Aktiv 116 / 114 40% 1 10.11.2026 -
Victor Aznar Cádiz Aktiv 122 / 115 40% 1 06.11.2026 -
Tomás Durso Atlético Tucumán Aktiv 124 / 127 40% 1 06.11.2026 -
Agustín Ruberto River Plate Aktiv 115 / 119 40% 2 04.11.2026 -
Agustín Lastra Estudiantes Aktiv 112 / 107 40% 2 03.11.2026 -
Diego Romero Universitario Aktiv 124 / 135 40% 2 03.11.2026 -
Sam Tickle Wigan Athletic Aktiv 117 / 115 40% 1 03.11.2026 -
Thiago Calone All Boys Aktiv 110 / 111 40% 1 31.10.2026 -
Erik Botheim Malmo FF Aktiv 141 / 126 40% 1 30.10.2026 -
Itumeleng Tau Ajax Cape Town Aktiv 130 / 100 40% 1 30.10.2026 -
Kein Sato FC Tokyo Aktiv 125 / 138 40% 1 28.10.2026 -
Juan Rocca Gimnasia y Tiro Aktiv 101 / 111 40% 1 28.10.2026 -
Lautaro Gordillo Colegiales Aktiv 109 / 120 40% 1 27.10.2026 -
Ola Brynhildsen Bodo/Glimt Aktiv 143 / 116 40% 1 27.10.2026 -
Lucas Varaldo Central Córdoba SdE Aktiv 116 / 118 40% 1 27.10.2026 -
Santino Barbi Talleres Aktiv 103 / 114 40% 2 26.10.2026 -
Lukas Jensen Millwall Aktiv 121 / 129 40% 1 26.10.2026 -
Nicolás Sumavil Platense Aktiv 123 / 117 40% 2 25.10.2026 -
Sebastián Meza Huracán Aktiv 118 / 138 40% 2 25.10.2026 -
Justo Giani Universidad Catolica Aktiv 121 / 111 40% 1 24.10.2026 -
Ramiro Ruiz Rodríguez Atlético Tucumán Aktiv 129 / 121 40% 1 24.10.2026 -
Dmytro Riznyk Shakhtar Aktiv 127 / 154 40% 2 21.10.2026 -
Luciano Jachfe Nueva Chicago Aktiv 112 / 118 40% 1 21.10.2026 -
Nicolás Bolcato Independiente Rivadavia Aktiv 113 / 127 40% 1 21.10.2026 -
Enzo Vázquez Central Norte Aktiv 116 / 115 40% 1 16.10.2026 -
Matías Sosa Arsenal Aktiv 110 / 117 40% 1 14.10.2026 -
Nahuel Manganelli Dinamo Batumi Aktiv 102 / 106 40% 3 12.10.2026 -
Luis Ingolotti Atlético Tucumán Aktiv 122 / 124 40% 1 12.10.2026 -
Alejandro Alcalá Gabala Aktiv 82 / 74 40% 1 28.09.2026 -
Luis Ureta San Luis Aktiv 106 / 99 40% 1 24.09.2026 -
Egoitz Arana Real Sociedad Aktiv 107 / 109 40% 1 21.09.2026 -
Kazuki Fujita Avispa Fukuoka Aktiv 137 / 130 40% 1 21.09.2026 -
Rodrigo Morínigo Libertad Aktiv 112 / 119 40% 1 15.09.2026 -
Chris Brady Chicago Fire Aktiv 140 / 126 40% 1 15.09.2026 -
Matías Dufour Sportivo Trinidense Aktiv 111 / 109 40% 1 15.09.2026 -